Terminal Aerodrome Forecast
Issued by NWS Pocatello, ID

Home | Current Version | Previous Version | Text Only | Print | Product List | Glossary On
Versions: 1 2 3 4 5 6 7 8 9 10 11 12 13 14 15 16 17 18 19 20 21 22 23
096
FTUS45 KPIH 080023 AAA
TAFBYI
TAF AMD
KBYI 080023Z 0800/0824 06006KT P6SM FEW200
     FM081500 07010KT P6SM FEW040 SCT090 BKN120
     FM082000 08010KT 6SM -SN BR SCT008 BKN040 OVC090=

USA.gov is the U.S. government's official web portal to all federal, state and local government web resources and services.